sensor_id;sensor_type;location;lat;lon;timestamp;P1;durP1;ratioP1;P2;durP2;ratioP2
7116;SDS011;3600;48.568;7.870;2023-09-18T00:00:33;2.85;;;2.20;;
7116;SDS011;3600;48.568;7.870;2023-09-18T00:03:01;5.03;;;2.70;;
7116;SDS011;3600;48.568;7.870;2023-09-18T00:05:30;6.45;;;2.65;;
7116;SDS011;3600;48.568;7.870;2023-09-18T00:07:57;6.70;;;2.80;;
7116;SDS011;3600;48.568;7.870;2023-09-18T00:10:25;7.70;;;3.35;;
7116;SDS011;3600;48.568;7.870;2023-09-18T00:12:52;3.72;;;2.72;;
7116;SDS011;3600;48.568;7.870;2023-09-18T00:15:19;5.55;;;2.78;;
7116;SDS011;3600;48.568;7.870;2023-09-18T00:17:46;4.45;;;2.53;;
7116;SDS011;3600;48.568;7.870;2023-09-18T00:20:13;4.32;;;2.40;;
7116;SDS011;3600;48.568;7.870;2023-09-18T00:22:40;4.35;;;2.55;;
7116;SDS011;3600;48.568;7.870;2023-09-18T00:25:07;3.65;;;2.70;;
7116;SDS011;3600;48.568;7.870;2023-09-18T00:27:33;5.03;;;2.65;;
7116;SDS011;3600;48.568;7.870;2023-09-18T00:30:05;5.15;;;2.90;;
7116;SDS011;3600;48.568;7.870;2023-09-18T00:32:33;5.68;;;2.65;;
7116;SDS011;3600;48.568;7.870;2023-09-18T00:35:00;3.72;;;2.70;;
7116;SDS011;3600;48.568;7.870;2023-09-18T00:37:28;5.45;;;3.00;;
7116;SDS011;3600;48.568;7.870;2023-09-18T00:39:55;4.75;;;2.55;;
7116;SDS011;3600;48.568;7.870;2023-09-18T00:42:21;9.23;;;3.30;;
7116;SDS011;3600;48.568;7.870;2023-09-18T00:44:49;6.03;;;3.00;;
7116;SDS011;3600;48.568;7.870;2023-09-18T00:47:16;5.93;;;2.75;;
7116;SDS011;3600;48.568;7.870;2023-09-18T00:49:45;7.88;;;2.80;;
7116;SDS011;3600;48.568;7.870;2023-09-18T00:52:15;4.03;;;2.75;;
7116;SDS011;3600;48.568;7.870;2023-09-18T00:54:43;9.60;;;2.88;;
7116;SDS011;3600;48.568;7.870;2023-09-18T00:57:11;6.90;;;2.95;;
7116;SDS011;3600;48.568;7.870;2023-09-18T00:59:38;6.65;;;2.75;;
7116;SDS011;3600;48.568;7.870;2023-09-18T01:02:05;4.35;;;3.13;;
7116;SDS011;3600;48.568;7.870;2023-09-18T01:04:33;6.22;;;3.00;;
7116;SDS011;3600;48.568;7.870;2023-09-18T01:07:00;7.55;;;2.50;;
7116;SDS011;3600;48.568;7.870;2023-09-18T01:09:30;5.30;;;2.50;;
7116;SDS011;3600;48.568;7.870;2023-09-18T01:15:02;3.75;;;2.50;;
7116;SDS011;3600;48.568;7.870;2023-09-18T01:17:36;5.20;;;2.70;;
7116;SDS011;3600;48.568;7.870;2023-09-18T01:20:10;4.55;;;2.63;;
7116;SDS011;3600;48.568;7.870;2023-09-18T01:22:38;6.10;;;2.72;;
7116;SDS011;3600;48.568;7.870;2023-09-18T01:25:05;4.22;;;2.88;;
7116;SDS011;3600;48.568;7.870;2023-09-18T01:27:33;5.25;;;3.10;;
7116;SDS011;3600;48.568;7.870;2023-09-18T01:30:00;3.75;;;2.45;;
7116;SDS011;3600;48.568;7.870;2023-09-18T01:32:27;6.28;;;2.90;;
7116;SDS011;3600;48.568;7.870;2023-09-18T01:34:59;6.32;;;2.83;;
7116;SDS011;3600;48.568;7.870;2023-09-18T01:37:30;2.63;;;2.40;;
7116;SDS011;3600;48.568;7.870;2023-09-18T01:39:57;3.72;;;2.63;;
7116;SDS011;3600;48.568;7.870;2023-09-18T01:42:26;4.70;;;2.47;;
7116;SDS011;3600;48.568;7.870;2023-09-18T01:44:54;4.15;;;2.63;;
7116;SDS011;3600;48.568;7.870;2023-09-18T01:47:21;4.10;;;2.70;;
7116;SDS011;3600;48.568;7.870;2023-09-18T01:49:53;4.05;;;2.65;;
7116;SDS011;3600;48.568;7.870;2023-09-18T01:52:20;2.72;;;2.50;;
7116;SDS011;3600;48.568;7.870;2023-09-18T01:54:47;4.53;;;2.70;;
7116;SDS011;3600;48.568;7.870;2023-09-18T01:57:15;4.63;;;2.85;;
7116;SDS011;3600;48.568;7.870;2023-09-18T01:59:42;6.07;;;3.08;;
7116;SDS011;3600;48.568;7.870;2023-09-18T02:02:13;5.95;;;3.35;;
7116;SDS011;3600;48.568;7.870;2023-09-18T02:04:50;5.40;;;3.35;;
7116;SDS011;3600;48.568;7.870;2023-09-18T02:07:29;4.93;;;3.13;;
7116;SDS011;3600;48.568;7.870;2023-09-18T02:09:58;5.63;;;3.25;;
7116;SDS011;3600;48.568;7.870;2023-09-18T02:12:24;4.35;;;3.22;;
7116;SDS011;3600;48.568;7.870;2023-09-18T02:14:51;5.20;;;3.35;;
7116;SDS011;3600;48.568;7.870;2023-09-18T02:17:18;4.82;;;3.33;;
7116;SDS011;3600;48.568;7.870;2023-09-18T02:19:47;6.00;;;3.42;;
7116;SDS011;3600;48.568;7.870;2023-09-18T02:22:13;10.02;;;3.60;;
7116;SDS011;3600;48.568;7.870;2023-09-18T02:24:40;6.03;;;3.25;;
7116;SDS011;3600;48.568;7.870;2023-09-18T02:27:07;5.22;;;3.40;;
7116;SDS011;3600;48.568;7.870;2023-09-18T02:29:34;5.50;;;3.25;;
7116;SDS011;3600;48.568;7.870;2023-09-18T02:32:01;5.57;;;2.85;;
7116;SDS011;3600;48.568;7.870;2023-09-18T02:34:28;4.53;;;3.47;;
7116;SDS011;3600;48.568;7.870;2023-09-18T02:36:55;7.18;;;3.47;;
7116;SDS011;3600;48.568;7.870;2023-09-18T02:39:22;5.97;;;3.58;;
7116;SDS011;3600;48.568;7.870;2023-09-18T02:41:49;3.67;;;3.35;;
7116;SDS011;3600;48.568;7.870;2023-09-18T02:44:16;4.53;;;3.67;;
7116;SDS011;3600;48.568;7.870;2023-09-18T02:46:43;8.73;;;3.95;;
7116;SDS011;3600;48.568;7.870;2023-09-18T02:49:10;5.13;;;3.55;;
7116;SDS011;3600;48.568;7.870;2023-09-18T02:51:37;9.88;;;3.75;;
7116;SDS011;3600;48.568;7.870;2023-09-18T02:54:04;6.97;;;3.90;;
7116;SDS011;3600;48.568;7.870;2023-09-18T02:56:31;5.40;;;3.38;;
7116;SDS011;3600;48.568;7.870;2023-09-18T02:58:58;8.45;;;3.88;;
7116;SDS011;3600;48.568;7.870;2023-09-18T03:01:25;11.68;;;4.18;;
7116;SDS011;3600;48.568;7.870;2023-09-18T03:03:52;9.07;;;3.53;;
7116;SDS011;3600;48.568;7.870;2023-09-18T03:06:19;9.63;;;3.58;;
7116;SDS011;3600;48.568;7.870;2023-09-18T03:08:45;8.02;;;3.30;;
7116;SDS011;3600;48.568;7.870;2023-09-18T03:11:12;6.30;;;3.83;;
7116;SDS011;3600;48.568;7.870;2023-09-18T03:13:44;11.93;;;4.00;;
7116;SDS011;3600;48.568;7.870;2023-09-18T03:16:14;7.57;;;4.50;;
7116;SDS011;3600;48.568;7.870;2023-09-18T03:18:41;8.43;;;4.18;;
7116;SDS011;3600;48.568;7.870;2023-09-18T03:21:08;6.70;;;3.50;;
7116;SDS011;3600;48.568;7.870;2023-09-18T03:23:35;9.13;;;4.40;;
7116;SDS011;3600;48.568;7.870;2023-09-18T03:26:02;6.45;;;3.47;;
7116;SDS011;3600;48.568;7.870;2023-09-18T03:28:29;6.78;;;4.00;;
7116;SDS011;3600;48.568;7.870;2023-09-18T03:30:57;4.07;;;3.08;;
7116;SDS011;3600;48.568;7.870;2023-09-18T03:33:25;9.65;;;3.63;;
7116;SDS011;3600;48.568;7.870;2023-09-18T03:35:52;8.20;;;3.63;;
7116;SDS011;3600;48.568;7.870;2023-09-18T03:38:21;6.43;;;3.33;;
7116;SDS011;3600;48.568;7.870;2023-09-18T03:40:49;7.32;;;3.80;;
7116;SDS011;3600;48.568;7.870;2023-09-18T03:43:15;7.53;;;3.10;;
7116;SDS011;3600;48.568;7.870;2023-09-18T03:45:43;8.32;;;3.97;;
7116;SDS011;3600;48.568;7.870;2023-09-18T03:48:10;4.38;;;3.15;;
7116;SDS011;3600;48.568;7.870;2023-09-18T03:50:37;4.10;;;3.45;;
7116;SDS011;3600;48.568;7.870;2023-09-18T03:53:06;5.45;;;3.28;;
7116;SDS011;3600;48.568;7.870;2023-09-18T03:55:33;5.57;;;3.20;;
7116;SDS011;3600;48.568;7.870;2023-09-18T03:58:00;5.47;;;3.20;;
7116;SDS011;3600;48.568;7.870;2023-09-18T04:00:27;10.52;;;4.13;;
7116;SDS011;3600;48.568;7.870;2023-09-18T04:02:53;9.80;;;3.58;;
7116;SDS011;3600;48.568;7.870;2023-09-18T04:05:21;5.85;;;2.80;;
7116;SDS011;3600;48.568;7.870;2023-09-18T04:07:47;7.45;;;3.03;;
7116;SDS011;3600;48.568;7.870;2023-09-18T04:10:14;5.22;;;3.08;;
7116;SDS011;3600;48.568;7.870;2023-09-18T04:12:45;4.38;;;2.63;;
7116;SDS011;3600;48.568;7.870;2023-09-18T04:15:14;8.35;;;2.90;;
7116;SDS011;3600;48.568;7.870;2023-09-18T04:17:41;6.35;;;2.92;;
7116;SDS011;3600;48.568;7.870;2023-09-18T04:20:08;6.45;;;2.45;;
7116;SDS011;3600;48.568;7.870;2023-09-18T04:22:36;2.22;;;1.95;;
7116;SDS011;3600;48.568;7.870;2023-09-18T04:25:09;3.17;;;2.30;;
7116;SDS011;3600;48.568;7.870;2023-09-18T04:27:36;3.58;;;2.00;;
7116;SDS011;3600;48.568;7.870;2023-09-18T04:30:04;4.30;;;1.80;;
7116;SDS011;3600;48.568;7.870;2023-09-18T04:32:31;6.30;;;2.00;;
7116;SDS011;3600;48.568;7.870;2023-09-18T04:34:58;4.22;;;2.40;;
7116;SDS011;3600;48.568;7.870;2023-09-18T04:37:25;4.40;;;2.10;;
7116;SDS011;3600;48.568;7.870;2023-09-18T04:39:52;4.18;;;1.90;;
7116;SDS011;3600;48.568;7.870;2023-09-18T04:42:18;4.35;;;2.45;;
7116;SDS011;3600;48.568;7.870;2023-09-18T04:44:45;3.10;;;1.80;;
7116;SDS011;3600;48.568;7.870;2023-09-18T04:47:12;3.83;;;1.80;;
7116;SDS011;3600;48.568;7.870;2023-09-18T04:49:39;4.28;;;2.40;;
7116;SDS011;3600;48.568;7.870;2023-09-18T04:52:06;4.38;;;2.40;;
7116;SDS011;3600;48.568;7.870;2023-09-18T04:54:33;5.18;;;2.13;;
7116;SDS011;3600;48.568;7.870;2023-09-18T04:56:59;5.28;;;2.42;;
7116;SDS011;3600;48.568;7.870;2023-09-18T04:59:26;5.40;;;2.13;;
7116;SDS011;3600;48.568;7.870;2023-09-18T05:01:53;8.05;;;2.10;;
7116;SDS011;3600;48.568;7.870;2023-09-18T05:04:20;4.47;;;2.10;;
7116;SDS011;3600;48.568;7.870;2023-09-18T05:06:47;7.20;;;2.67;;
7116;SDS011;3600;48.568;7.870;2023-09-18T05:09:13;6.53;;;2.60;;
7116;SDS011;3600;48.568;7.870;2023-09-18T05:11:41;5.25;;;2.50;;
7116;SDS011;3600;48.568;7.870;2023-09-18T05:14:09;3.63;;;2.20;;
7116;SDS011;3600;48.568;7.870;2023-09-18T05:16:36;7.25;;;2.30;;
7116;SDS011;3600;48.568;7.870;2023-09-18T05:19:03;3.63;;;1.95;;
7116;SDS011;3600;48.568;7.870;2023-09-18T05:21:30;5.65;;;2.47;;
7116;SDS011;3600;48.568;7.870;2023-09-18T05:23:56;5.57;;;2.17;;
7116;SDS011;3600;48.568;7.870;2023-09-18T05:26:23;3.55;;;1.98;;
7116;SDS011;3600;48.568;7.870;2023-09-18T05:28:51;5.05;;;2.38;;
7116;SDS011;3600;48.568;7.870;2023-09-18T05:31:18;5.47;;;2.60;;
7116;SDS011;3600;48.568;7.870;2023-09-18T05:33:45;2.22;;;1.90;;
7116;SDS011;3600;48.568;7.870;2023-09-18T05:36:12;7.07;;;2.40;;
7116;SDS011;3600;48.568;7.870;2023-09-18T05:38:41;7.10;;;2.30;;
7116;SDS011;3600;48.568;7.870;2023-09-18T05:41:09;3.20;;;2.00;;
7116;SDS011;3600;48.568;7.870;2023-09-18T05:43:37;4.00;;;2.00;;
7116;SDS011;3600;48.568;7.870;2023-09-18T05:46:03;6.03;;;2.05;;
7116;SDS011;3600;48.568;7.870;2023-09-18T05:48:30;3.67;;;2.10;;
7116;SDS011;3600;48.568;7.870;2023-09-18T05:50:57;4.82;;;2.03;;
7116;SDS011;3600;48.568;7.870;2023-09-18T05:53:24;2.47;;;1.80;;
7116;SDS011;3600;48.568;7.870;2023-09-18T05:55:51;3.03;;;1.58;;
7116;SDS011;3600;48.568;7.870;2023-09-18T05:58:18;2.83;;;1.80;;
7116;SDS011;3600;48.568;7.870;2023-09-18T06:00:48;2.38;;;1.50;;
7116;SDS011;3600;48.568;7.870;2023-09-18T06:03:16;3.17;;;1.85;;
7116;SDS011;3600;48.568;7.870;2023-09-18T06:05:45;3.15;;;1.65;;
7116;SDS011;3600;48.568;7.870;2023-09-18T06:08:13;1.67;;;1.30;;
7116;SDS011;3600;48.568;7.870;2023-09-18T06:10:42;1.98;;;1.25;;
7116;SDS011;3600;48.568;7.870;2023-09-18T06:13:09;4.25;;;1.23;;
7116;SDS011;3600;48.568;7.870;2023-09-18T06:15:36;2.90;;;0.95;;
7116;SDS011;3600;48.568;7.870;2023-09-18T06:18:03;2.50;;;1.00;;
7116;SDS011;3600;48.568;7.870;2023-09-18T06:20:30;1.42;;;0.77;;
7116;SDS011;3600;48.568;7.870;2023-09-18T06:22:57;1.75;;;1.08;;
7116;SDS011;3600;48.568;7.870;2023-09-18T06:25:24;1.48;;;1.02;;
7116;SDS011;3600;48.568;7.870;2023-09-18T06:27:51;1.60;;;0.90;;
7116;SDS011;3600;48.568;7.870;2023-09-18T06:30:18;3.38;;;0.95;;
7116;SDS011;3600;48.568;7.870;2023-09-18T06:32:45;2.03;;;0.95;;
7116;SDS011;3600;48.568;7.870;2023-09-18T06:35:12;1.80;;;1.10;;
7116;SDS011;3600;48.568;7.870;2023-09-18T06:37:39;2.60;;;0.88;;
7116;SDS011;3600;48.568;7.870;2023-09-18T06:40:06;1.95;;;0.85;;
7116;SDS011;3600;48.568;7.870;2023-09-18T06:42:33;3.80;;;0.82;;
7116;SDS011;3600;48.568;7.870;2023-09-18T06:45:00;0.85;;;0.80;;
7116;SDS011;3600;48.568;7.870;2023-09-18T06:47:28;0.80;;;0.75;;
7116;SDS011;3600;48.568;7.870;2023-09-18T06:49:55;1.75;;;0.68;;
7116;SDS011;3600;48.568;7.870;2023-09-18T06:52:22;1.75;;;0.85;;
7116;SDS011;3600;48.568;7.870;2023-09-18T06:54:48;2.13;;;0.98;;
7116;SDS011;3600;48.568;7.870;2023-09-18T06:57:15;0.98;;;0.80;;
7116;SDS011;3600;48.568;7.870;2023-09-18T06:59:42;2.92;;;1.00;;
7116;SDS011;3600;48.568;7.870;2023-09-18T07:02:09;2.42;;;0.77;;
7116;SDS011;3600;48.568;7.870;2023-09-18T07:04:36;1.00;;;0.85;;
7116;SDS011;3600;48.568;7.870;2023-09-18T07:07:12;2.92;;;1.17;;
7116;SDS011;3600;48.568;7.870;2023-09-18T07:09:40;2.08;;;1.15;;
7116;SDS011;3600;48.568;7.870;2023-09-18T07:12:28;1.48;;;0.90;;
7116;SDS011;3600;48.568;7.870;2023-09-18T07:14:55;0.90;;;0.90;;
7116;SDS011;3600;48.568;7.870;2023-09-18T07:17:22;3.72;;;0.98;;
7116;SDS011;3600;48.568;7.870;2023-09-18T07:19:49;2.92;;;1.00;;
7116;SDS011;3600;48.568;7.870;2023-09-18T07:22:16;2.35;;;1.20;;
7116;SDS011;3600;48.568;7.870;2023-09-18T07:24:43;1.92;;;1.13;;
7116;SDS011;3600;48.568;7.870;2023-09-18T07:27:11;2.60;;;1.00;;
7116;SDS011;3600;48.568;7.870;2023-09-18T07:29:39;2.05;;;0.90;;
7116;SDS011;3600;48.568;7.870;2023-09-18T07:32:06;2.75;;;1.05;;
7116;SDS011;3600;48.568;7.870;2023-09-18T07:34:33;4.18;;;1.40;;
7116;SDS011;3600;48.568;7.870;2023-09-18T07:36:59;3.63;;;1.27;;
7116;SDS011;3600;48.568;7.870;2023-09-18T07:39:26;3.15;;;1.40;;
7116;SDS011;3600;48.568;7.870;2023-09-18T07:41:56;3.75;;;1.40;;
7116;SDS011;3600;48.568;7.870;2023-09-18T07:44:23;1.23;;;1.00;;
7116;SDS011;3600;48.568;7.870;2023-09-18T07:46:50;3.83;;;1.55;;
7116;SDS011;3600;48.568;7.870;2023-09-18T07:49:17;3.20;;;1.20;;
7116;SDS011;3600;48.568;7.870;2023-09-18T07:51:44;5.20;;;1.20;;
7116;SDS011;3600;48.568;7.870;2023-09-18T07:54:13;2.45;;;1.23;;
7116;SDS011;3600;48.568;7.870;2023-09-18T07:56:42;3.42;;;1.40;;
7116;SDS011;3600;48.568;7.870;2023-09-18T07:59:09;1.67;;;1.40;;
7116;SDS011;3600;48.568;7.870;2023-09-18T08:01:37;2.88;;;1.20;;
7116;SDS011;3600;48.568;7.870;2023-09-18T08:04:04;3.53;;;1.08;;
7116;SDS011;3600;48.568;7.870;2023-09-18T08:06:32;1.40;;;1.30;;
7116;SDS011;3600;48.568;7.870;2023-09-18T08:09:00;4.10;;;1.52;;
7116;SDS011;3600;48.568;7.870;2023-09-18T08:11:27;3.05;;;1.40;;
7116;SDS011;3600;48.568;7.870;2023-09-18T08:13:54;2.20;;;1.25;;
7116;SDS011;3600;48.568;7.870;2023-09-18T08:16:20;3.35;;;1.42;;
7116;SDS011;3600;48.568;7.870;2023-09-18T08:18:47;4.15;;;1.38;;
7116;SDS011;3600;48.568;7.870;2023-09-18T08:21:14;1.98;;;1.20;;
7116;SDS011;3600;48.568;7.870;2023-09-18T08:23:43;3.70;;;1.38;;
7116;SDS011;3600;48.568;7.870;2023-09-18T08:26:10;2.80;;;1.33;;
7116;SDS011;3600;48.568;7.870;2023-09-18T08:28:39;3.53;;;1.42;;
7116;SDS011;3600;48.568;7.870;2023-09-18T08:31:09;2.25;;;1.45;;
7116;SDS011;3600;48.568;7.870;2023-09-18T08:33:37;2.20;;;1.48;;
7116;SDS011;3600;48.568;7.870;2023-09-18T08:36:04;2.65;;;1.23;;
7116;SDS011;3600;48.568;7.870;2023-09-18T08:38:31;4.03;;;1.77;;
7116;SDS011;3600;48.568;7.870;2023-09-18T08:40:58;4.43;;;1.48;;
7116;SDS011;3600;48.568;7.870;2023-09-18T08:43:25;4.18;;;1.40;;
7116;SDS011;3600;48.568;7.870;2023-09-18T08:45:53;2.10;;;1.38;;
7116;SDS011;3600;48.568;7.870;2023-09-18T08:48:23;3.80;;;1.70;;
7116;SDS011;3600;48.568;7.870;2023-09-18T08:50:50;3.92;;;1.90;;
7116;SDS011;3600;48.568;7.870;2023-09-18T08:53:18;3.35;;;1.33;;
7116;SDS011;3600;48.568;7.870;2023-09-18T08:55:45;3.83;;;1.60;;
7116;SDS011;3600;48.568;7.870;2023-09-18T08:58:11;2.75;;;1.40;;
7116;SDS011;3600;48.568;7.870;2023-09-18T09:00:39;2.95;;;1.60;;
7116;SDS011;3600;48.568;7.870;2023-09-18T09:03:06;2.08;;;1.70;;
7116;SDS011;3600;48.568;7.870;2023-09-18T09:05:34;2.92;;;1.73;;
7116;SDS011;3600;48.568;7.870;2023-09-18T09:08:01;3.28;;;1.45;;
7116;SDS011;3600;48.568;7.870;2023-09-18T09:10:28;2.42;;;1.58;;
7116;SDS011;3600;48.568;7.870;2023-09-18T09:12:59;3.15;;;1.40;;
7116;SDS011;3600;48.568;7.870;2023-09-18T09:15:27;1.98;;;1.00;;
7116;SDS011;3600;48.568;7.870;2023-09-18T09:18:04;1.90;;;1.10;;
7116;SDS011;3600;48.568;7.870;2023-09-18T09:20:33;3.33;;;1.25;;
7116;SDS011;3600;48.568;7.870;2023-09-18T09:23:03;2.53;;;1.20;;
7116;SDS011;3600;48.568;7.870;2023-09-18T09:25:32;6.78;;;1.25;;
7116;SDS011;3600;48.568;7.870;2023-09-18T09:28:00;1.80;;;0.85;;
7116;SDS011;3600;48.568;7.870;2023-09-18T09:30:32;1.90;;;1.10;;
7116;SDS011;3600;48.568;7.870;2023-09-18T09:33:00;2.03;;;1.13;;
7116;SDS011;3600;48.568;7.870;2023-09-18T09:35:30;3.65;;;1.42;;
7116;SDS011;3600;48.568;7.870;2023-09-18T09:38:08;2.20;;;1.67;;
7116;SDS011;3600;48.568;7.870;2023-09-18T09:40:39;4.60;;;1.30;;
7116;SDS011;3600;48.568;7.870;2023-09-18T09:43:08;4.35;;;1.25;;
7116;SDS011;3600;48.568;7.870;2023-09-18T09:45:36;2.88;;;1.30;;
7116;SDS011;3600;48.568;7.870;2023-09-18T09:48:04;1.63;;;1.02;;
7116;SDS011;3600;48.568;7.870;2023-09-18T09:50:33;2.38;;;1.08;;
7116;SDS011;3600;48.568;7.870;2023-09-18T09:53:13;2.10;;;1.40;;
7116;SDS011;3600;48.568;7.870;2023-09-18T09:55:40;1.58;;;1.02;;
7116;SDS011;3600;48.568;7.870;2023-09-18T09:58:08;1.98;;;1.20;;
7116;SDS011;3600;48.568;7.870;2023-09-18T10:00:44;2.42;;;1.27;;
7116;SDS011;3600;48.568;7.870;2023-09-18T10:03:14;2.33;;;1.08;;
7116;SDS011;3600;48.568;7.870;2023-09-18T10:05:43;1.52;;;1.20;;
7116;SDS011;3600;48.568;7.870;2023-09-18T10:08:12;2.08;;;0.90;;
7116;SDS011;3600;48.568;7.870;2023-09-18T10:10:40;1.67;;;0.82;;
7116;SDS011;3600;48.568;7.870;2023-09-18T10:13:15;8.35;;;1.52;;
7116;SDS011;3600;48.568;7.870;2023-09-18T10:15:49;3.42;;;1.33;;
7116;SDS011;3600;48.568;7.870;2023-09-18T10:21:20;2.35;;;1.27;;
7116;SDS011;3600;48.568;7.870;2023-09-18T10:24:22;3.28;;;0.90;;
7116;SDS011;3600;48.568;7.870;2023-09-18T10:26:57;2.35;;;0.93;;
7116;SDS011;3600;48.568;7.870;2023-09-18T10:29:25;2.55;;;0.82;;
7116;SDS011;3600;48.568;7.870;2023-09-18T10:31:54;4.38;;;1.33;;
7116;SDS011;3600;48.568;7.870;2023-09-18T10:34:21;1.30;;;0.90;;
7116;SDS011;3600;48.568;7.870;2023-09-18T10:36:50;2.10;;;1.00;;
7116;SDS011;3600;48.568;7.870;2023-09-18T10:39:18;3.28;;;0.80;;
7116;SDS011;3600;48.568;7.870;2023-09-18T10:41:54;3.42;;;0.90;;
7116;SDS011;3600;48.568;7.870;2023-09-18T10:44:24;1.73;;;1.20;;
7116;SDS011;3600;48.568;7.870;2023-09-18T10:46:51;3.47;;;0.93;;
7116;SDS011;3600;48.568;7.870;2023-09-18T10:49:19;1.35;;;0.82;;
7116;SDS011;3600;48.568;7.870;2023-09-18T10:51:47;2.03;;;1.15;;
7116;SDS011;3600;48.568;7.870;2023-09-18T10:54:20;4.63;;;1.10;;
7116;SDS011;3600;48.568;7.870;2023-09-18T10:56:48;1.92;;;0.90;;
7116;SDS011;3600;48.568;7.870;2023-09-18T10:59:15;2.20;;;1.00;;
7116;SDS011;3600;48.568;7.870;2023-09-18T11:01:44;1.52;;;1.20;;
7116;SDS011;3600;48.568;7.870;2023-09-18T11:04:17;2.45;;;1.08;;
7116;SDS011;3600;48.568;7.870;2023-09-18T11:07:04;1.00;;;0.90;;
7116;SDS011;3600;48.568;7.870;2023-09-18T11:09:40;0.85;;;0.70;;
7116;SDS011;3600;48.568;7.870;2023-09-18T11:12:09;1.02;;;1.00;;
7116;SDS011;3600;48.568;7.870;2023-09-18T11:17:36;1.35;;;1.00;;
7116;SDS011;3600;48.568;7.870;2023-09-18T11:20:22;4.18;;;1.45;;
7116;SDS011;3600;48.568;7.870;2023-09-18T11:22:58;2.47;;;1.17;;
7116;SDS011;3600;48.568;7.870;2023-09-18T11:25:37;2.05;;;0.85;;
7116;SDS011;3600;48.568;7.870;2023-09-18T11:28:05;1.65;;;0.95;;
7116;SDS011;3600;48.568;7.870;2023-09-18T11:30:35;3.08;;;1.08;;
7116;SDS011;3600;48.568;7.870;2023-09-18T11:33:04;1.30;;;1.00;;
7116;SDS011;3600;48.568;7.870;2023-09-18T11:35:32;2.25;;;0.95;;
7116;SDS011;3600;48.568;7.870;2023-09-18T11:38:05;2.50;;;0.82;;
7116;SDS011;3600;48.568;7.870;2023-09-18T11:40:37;2.10;;;0.73;;
7116;SDS011;3600;48.568;7.870;2023-09-18T11:43:29;2.63;;;1.20;;
7116;SDS011;3600;48.568;7.870;2023-09-18T11:46:01;2.47;;;1.02;;
7116;SDS011;3600;48.568;7.870;2023-09-18T11:48:31;2.38;;;1.17;;
7116;SDS011;3600;48.568;7.870;2023-09-18T11:51:00;1.63;;;1.15;;
7116;SDS011;3600;48.568;7.870;2023-09-18T11:53:33;1.75;;;0.90;;
7116;SDS011;3600;48.568;7.870;2023-09-18T11:56:03;2.80;;;1.10;;
7116;SDS011;3600;48.568;7.870;2023-09-18T11:58:49;3.05;;;0.90;;
7116;SDS011;3600;48.568;7.870;2023-09-18T12:01:18;2.13;;;1.10;;
7116;SDS011;3600;48.568;7.870;2023-09-18T12:03:45;1.40;;;1.15;;
7116;SDS011;3600;48.568;7.870;2023-09-18T12:06:13;0.80;;;0.70;;
7116;SDS011;3600;48.568;7.870;2023-09-18T12:08:42;1.58;;;0.88;;
7116;SDS011;3600;48.568;7.870;2023-09-18T12:11:09;1.67;;;0.85;;
7116;SDS011;3600;48.568;7.870;2023-09-18T12:13:35;2.72;;;1.05;;
7116;SDS011;3600;48.568;7.870;2023-09-18T12:16:04;1.92;;;1.10;;
7116;SDS011;3600;48.568;7.870;2023-09-18T12:18:32;1.45;;;0.80;;
7116;SDS011;3600;48.568;7.870;2023-09-18T12:21:07;3.22;;;1.15;;
7116;SDS011;3600;48.568;7.870;2023-09-18T12:23:41;3.05;;;1.25;;
7116;SDS011;3600;48.568;7.870;2023-09-18T12:26:12;0.98;;;0.88;;
7116;SDS011;3600;48.568;7.870;2023-09-18T12:28:42;5.43;;;1.25;;
7116;SDS011;3600;48.568;7.870;2023-09-18T12:31:10;0.88;;;0.80;;
7116;SDS011;3600;48.568;7.870;2023-09-18T12:33:38;2.78;;;1.45;;
7116;SDS011;3600;48.568;7.870;2023-09-18T12:36:06;1.65;;;0.93;;
7116;SDS011;3600;48.568;7.870;2023-09-18T12:38:34;3.45;;;1.13;;
7116;SDS011;3600;48.568;7.870;2023-09-18T12:41:03;1.10;;;0.85;;
7116;SDS011;3600;48.568;7.870;2023-09-18T12:46:04;2.60;;;1.73;;
7116;SDS011;3600;48.568;7.870;2023-09-18T12:48:31;2.67;;;1.05;;
7116;SDS011;3600;48.568;7.870;2023-09-18T12:51:03;1.70;;;0.95;;
7116;SDS011;3600;48.568;7.870;2023-09-18T12:53:34;2.10;;;0.80;;
7116;SDS011;3600;48.568;7.870;2023-09-18T12:56:04;3.30;;;1.15;;
7116;SDS011;3600;48.568;7.870;2023-09-18T12:58:36;2.58;;;1.02;;
7116;SDS011;3600;48.568;7.870;2023-09-18T13:01:23;1.38;;;1.10;;
7116;SDS011;3600;48.568;7.870;2023-09-18T13:03:53;1.92;;;0.90;;
7116;SDS011;3600;48.568;7.870;2023-09-18T13:06:22;1.60;;;0.70;;
7116;SDS011;3600;48.568;7.870;2023-09-18T13:08:50;1.63;;;0.88;;
7116;SDS011;3600;48.568;7.870;2023-09-18T13:11:20;1.95;;;0.90;;
7116;SDS011;3600;48.568;7.870;2023-09-18T13:13:46;1.13;;;1.02;;
7116;SDS011;3600;48.568;7.870;2023-09-18T13:16:23;1.83;;;1.20;;
7116;SDS011;3600;48.568;7.870;2023-09-18T13:18:51;1.13;;;0.80;;
7116;SDS011;3600;48.568;7.870;2023-09-18T13:21:18;1.70;;;0.90;;
7116;SDS011;3600;48.568;7.870;2023-09-18T13:23:46;1.60;;;0.70;;
7116;SDS011;3600;48.568;7.870;2023-09-18T13:26:13;2.67;;;0.60;;
7116;SDS011;3600;48.568;7.870;2023-09-18T13:28:40;1.83;;;1.13;;
7116;SDS011;3600;48.568;7.870;2023-09-18T13:31:09;0.75;;;0.75;;
7116;SDS011;3600;48.568;7.870;2023-09-18T13:33:39;1.00;;;0.68;;
7116;SDS011;3600;48.568;7.870;2023-09-18T13:36:07;0.90;;;0.70;;
7116;SDS011;3600;48.568;7.870;2023-09-18T13:38:34;3.05;;;0.80;;
7116;SDS011;3600;48.568;7.870;2023-09-18T13:41:01;0.90;;;0.90;;
7116;SDS011;3600;48.568;7.870;2023-09-18T13:43:29;1.73;;;0.90;;
7116;SDS011;3600;48.568;7.870;2023-09-18T13:45:59;1.10;;;0.55;;
7116;SDS011;3600;48.568;7.870;2023-09-18T13:48:26;1.65;;;0.75;;
7116;SDS011;3600;48.568;7.870;2023-09-18T13:50:53;1.83;;;0.80;;
7116;SDS011;3600;48.568;7.870;2023-09-18T13:53:20;0.88;;;0.75;;
7116;SDS011;3600;48.568;7.870;2023-09-18T13:55:48;0.85;;;0.80;;
7116;SDS011;3600;48.568;7.870;2023-09-18T13:58:15;2.25;;;0.75;;
7116;SDS011;3600;48.568;7.870;2023-09-18T14:00:43;3.03;;;0.88;;
7116;SDS011;3600;48.568;7.870;2023-09-18T14:03:13;3.05;;;0.80;;
7116;SDS011;3600;48.568;7.870;2023-09-18T14:05:43;0.98;;;0.93;;
7116;SDS011;3600;48.568;7.870;2023-09-18T14:08:10;0.95;;;0.73;;
7116;SDS011;3600;48.568;7.870;2023-09-18T14:10:37;2.03;;;0.90;;
7116;SDS011;3600;48.568;7.870;2023-09-18T14:13:06;1.10;;;0.77;;
7116;SDS011;3600;48.568;7.870;2023-09-18T14:15:33;1.05;;;0.65;;
7116;SDS011;3600;48.568;7.870;2023-09-18T14:18:00;1.98;;;1.00;;
7116;SDS011;3600;48.568;7.870;2023-09-18T14:20:27;0.80;;;0.80;;
7116;SDS011;3600;48.568;7.870;2023-09-18T14:22:54;3.30;;;0.80;;
7116;SDS011;3600;48.568;7.870;2023-09-18T14:25:21;1.92;;;0.93;;
7116;SDS011;3600;48.568;7.870;2023-09-18T14:27:48;0.90;;;0.80;;
7116;SDS011;3600;48.568;7.870;2023-09-18T14:30:15;1.05;;;1.00;;
7116;SDS011;3600;48.568;7.870;2023-09-18T14:32:43;0.93;;;0.63;;
7116;SDS011;3600;48.568;7.870;2023-09-18T14:35:10;1.02;;;0.90;;
7116;SDS011;3600;48.568;7.870;2023-09-18T14:37:37;1.05;;;0.82;;
7116;SDS011;3600;48.568;7.870;2023-09-18T14:40:04;1.17;;;1.08;;
7116;SDS011;3600;48.568;7.870;2023-09-18T14:42:32;1.35;;;0.90;;
7116;SDS011;3600;48.568;7.870;2023-09-18T14:44:59;1.35;;;0.82;;
7116;SDS011;3600;48.568;7.870;2023-09-18T14:47:28;1.83;;;1.13;;
7116;SDS011;3600;48.568;7.870;2023-09-18T14:49:55;3.58;;;1.13;;
7116;SDS011;3600;48.568;7.870;2023-09-18T14:52:22;0.98;;;0.85;;
7116;SDS011;3600;48.568;7.870;2023-09-18T14:54:52;1.60;;;1.00;;
7116;SDS011;3600;48.568;7.870;2023-09-18T14:57:18;1.23;;;0.88;;
7116;SDS011;3600;48.568;7.870;2023-09-18T14:59:45;0.85;;;0.82;;
7116;SDS011;3600;48.568;7.870;2023-09-18T15:02:14;3.13;;;0.90;;
7116;SDS011;3600;48.568;7.870;2023-09-18T15:04:42;0.77;;;0.75;;
7116;SDS011;3600;48.568;7.870;2023-09-18T15:07:09;1.33;;;0.98;;
7116;SDS011;3600;48.568;7.870;2023-09-18T15:09:37;1.52;;;0.80;;
7116;SDS011;3600;48.568;7.870;2023-09-18T15:12:04;2.20;;;1.38;;
7116;SDS011;3600;48.568;7.870;2023-09-18T15:14:37;2.80;;;1.20;;
7116;SDS011;3600;48.568;7.870;2023-09-18T15:17:04;2.08;;;1.05;;
7116;SDS011;3600;48.568;7.870;2023-09-18T15:19:30;2.97;;;1.00;;
7116;SDS011;3600;48.568;7.870;2023-09-18T15:21:58;1.25;;;0.95;;
7116;SDS011;3600;48.568;7.870;2023-09-18T15:24:25;1.10;;;1.00;;
7116;SDS011;3600;48.568;7.870;2023-09-18T15:26:52;1.65;;;1.20;;
7116;SDS011;3600;48.568;7.870;2023-09-18T15:29:19;0.70;;;0.70;;
7116;SDS011;3600;48.568;7.870;2023-09-18T15:31:46;1.52;;;0.85;;
7116;SDS011;3600;48.568;7.870;2023-09-18T15:34:13;1.95;;;1.00;;